ADDS METAR Data INFO
IDs: Format: Raw Decoded Include TAF

Data at: 2053 UTC 26 May 2017

KBYG 261953Z AUTO 35005KT 10SM OVC044 12/01 A2995 RMK AO2 SLP119 T01170011
KBYG 261853Z AUTO 35006KT 10SM OVC043 12/01 A2995 RMK AO2 SLP119 T01170011
KBYG 261753Z AUTO 35007KT 10SM OVC047 12/01 A2995 RMK AO2 SLP118 T01170011 10122 20039 58003
KBYG 261653Z AUTO 34007KT 10SM BKN047 OVC055 12/01 A2996 RMK AO2 SLP122 T01220006
KBYG 261553Z AUTO 36004KT 10SM OVC041 11/M01 A2995 RMK AO2 SLP122 T01111006
KBYG 261453Z AUTO 35004KT 10SM BKN037 11/01 A2996 RMK AO2 SLP122 T01110011 51004
KBYG 261353Z AUTO 20005KT 10SM SCT110 10/02 A2996 RMK AO2 SLP121 T01000022
KBYG 261253Z AUTO 26007KT 10SM SCT100 06/01 A2996 RMK AO2 SLP127 T00560011
KBYG 261153Z AUTO 27005KT 10SM CLR 04/01 A2994 RMK AO2 SLP128 T00390006 10094 20039 53005
KBYG 261053Z AUTO 00000KT 10SM CLR 07/02 A2993 RMK AO2 SLP118 T00670017
KBYG 260953Z AUTO 16009KT 10SM OVC110 07/02 A2993 RMK AO2 SLP113 T00720022
KBYG 260853Z AUTO 20004KT 10SM OVC110 07/01 A2993 RMK AO2 SLP116 T00720011 50004
KBYG 260753Z AUTO 00000KT 10SM BKN110 08/01 A2993 RMK AO2 SLP118 T00780011
KBYG 260653Z AUTO 34005KT 10SM OVC110 09/01 A2992 RMK AO2 SLP107 T00890006 401440072
KBYG 260553Z AUTO 32011KT 10SM FEW090 OVC110 09/02 A2991 RMK AO2 SLP103 T00890017 10128 20083 51018
KBYG 260453Z AUTO 34012G23KT 10SM OVC100 09/03 A2990 RMK AO2 SLP099 T00890028
KBYG 260353Z AUTO 34010G21KT 10SM BKN095 09/02 A2988 RMK AO2 SLP094 T00890022
KBYG 260253Z AUTO 33012G23KT 10SM CLR 09/02 A2985 RMK AO2 SLP085 T00940017 53024
KBYG 260153Z AUTO 34017G23KT 10SM BKN085 11/01 A2982 RMK AO2 PK WND 35031/0130 SLP075 T01060011
KBYG 260053Z AUTO 34020G25KT 10SM OVC085 12/01 A2980 RMK AO2 PK WND 35032/0011 SLP066 T01170011
KBYG 252353Z AUTO 35017G34KT 10SM OVC070 12/01 A2977 RMK AO2 PK WND 33036/2310 SLP058 T01170011 10144 20106 53018
KBYG 252253Z AUTO 34024G33KT 10SM FEW065 BKN090 12/02 A2975 RMK AO2 PK WND 33036/2209 SLP048 T01170017
KBYG 252153Z AUTO 35022G35KT 10SM BKN090 14/02 A2973 RMK AO2 PK WND 34035/2149 SLP041 T01390022
KBYG 252053Z AUTO 33021G34KT 10SM OVC095 11/02 A2971 RMK AO2 PK WND 33037/2000 SLP037 T01110022 51020
KBYG 251953Z AUTO 34025G36KT 10SM SCT095 11/02 A2969 RMK AO2 PK WND 33036/1944 SLP027 T01110017
KBYG 251853Z AUTO 35025G33KT 10SM FEW039 BKN065 13/03 A2968 RMK AO2 PK WND 34033/1852 SLP015 T01330028
KBYG 251753Z AUTO 35020G25KT 10SM CLR 14/01 A2964 RMK AO2 SLP003 T01440006 10144 20083 53012
KBYG 251653Z AUTO 36015G22KT 10SM FEW100 13/M01 A2963 RMK AO2 SLP997 T01331011
KBYG 251553Z AUTO 35015G22KT 10SM FEW100 13/M02 A2961 RMK AO2 SLP991 T01331022
KBYG 251453Z AUTO 36011KT 10SM CLR 12/M05 A2960 RMK AO2 SLP986 T01171050 50003
KBYG 251353Z AUTO VRB05KT 10SM CLR 10/M04 A2960 RMK AO2 SLP987 T01001044
KBYG 251253Z AUTO 31003KT 10SM OVC060 09/M04 A2960 RMK AO2 SLP985 T00891044
KBYG 251153Z AUTO 35007KT 10SM OVC070 08/M06 A2959 RMK AO2 SLP968 T00831056 10122 20072 53004
KBYG 251053Z AUTO 33014G24KT 10SM OVC075 09/M07 A2959 RMK AO2 SLP965 T00891072
KBYG 250953Z AUTO 34009KT 10SM FEW070 07/M04 A2957 RMK AO2 SLP964 T00721044


Page loaded:  20:53 UTC  |   01:53 PM Pacific  |   02:53 PM Mountain  |   03:53 PM Central  |   04:53 PM Eastern

 

ADVISORIES

FORECASTS

FORECASTS

OBSERVATIONS

USER TOOLS

ABOUT US